Forside
METAR-TAF:

METAR-TAF

Lufthavne :

Cedar Rapids, Iowa, USA

Breddekreds: 41-53-04N, længdekreds: 091-42-38W, højde: 263 m

Aktuelle vejr

Denne rapport blev lavet for 30 minutter siden, kl. 19:52 UTC
Vind 12 kt fra sydsydvest
Temperatur 9°C
Fugtighed 49%
Tryk 1018 hPa
Sigt: 16.1 km
skyfri

METAR: KCID 221952Z 20012KT 10SM CLR 09/M01 A3005 RMK AO2 SLP181 T00891011

Tid: 14:22 (20:22 UTC)

Vejrudsigter

Denne rapport blev lavet for 2 timer og 53 minutter siden, kl. 17:29 UTC
Foreløbig gælder fra 22 på 18 UTC til 23 på 18 UTC
Vind 12 kt fra sydsydvest
Sigt: 10 km
skyfri
Fra 23 på 0300 UTC
Vind 9 kt fra syd
Sigt: 10 km
Spredte skyer i en højde af 25000 ft
Fra 23 på 0800 UTC
Vind 8 kt fra sydsydvest
Sigt: 10 km
Spredte skyer i en højde af 1200 ft
Fra 23 på 1700 UTC
Vind 8 kt fra vest
Sigt: 10 km
Spredte skyer i en højde af 20000 ft

TAF: KCID 221729Z 2218/2318 21012KT P6SM SKC FM230300 19009KT P6SM SCT250 WS015/23040KT FM230800 20008KT P6SM SCT012 FM231700 26008KT P6SM SCT200

Vejrobservationer og prognoser fra mere end 4000 lufthavne (METAR og TAF).

De gule og røde prikker repræsenterer de meteorologiske stationer.

Flyt musen over at se navnet på stationen.

Så klik over at se vejr observationer og prognoser.

At skifte det kort: Klik på de grønne knapper med et sort kors for at zoome ind; på den grønne knap med en bindestreg for at zoome ud; eller på de grønne pile for tilstødende kort.


METAR-TAF: